AAL2577 MMUN-KMIA
Flight info
| Callsign | AAL2577 |
|---|---|
| Flight time | 1h 10m |
| Altitude | 37000 |
| Route | NUDAL1A NUDAL UV106 PODON UG765 MAXIM SNDBR3 |
| Aircraft | A321/M-SDE3FGHIRWY/LB1 |
Departure
| Time | 2026-05-03 20:48 |
|---|---|
| Airport | Cancún International Airport (MMUN) |
Arrival
| Time | 2026-05-03 21:58 |
|---|---|
| Airport | Miami International Airport (KMIA) |
| Time | Latitude | Longitude | Altitude | Speed | Heading |
|---|---|---|---|---|---|
| 2026-05-03 20:15 | 21.03527 | -86.86855 | 21 ft | 0 kts | 11° |
| 2026-05-03 20:35 | 21.03525 | -86.86856 | 10 ft | 2 kts | 11° |
| 2026-05-03 20:35 | 21.03499 | -86.86861 | 20 ft | 4 kts | 11° |
| 2026-05-03 20:35 | 21.03473 | -86.86866 | 21 ft | 3 kts | 11° |
| 2026-05-03 20:36 | 21.03452 | -86.86870 | 20 ft | 4 kts | 4° |
| 2026-05-03 20:36 | 21.03426 | -86.86868 | 21 ft | 4 kts | 335° |
| 2026-05-03 20:36 | 21.03412 | -86.86857 | 21 ft | 0 kts | 302° |
| 2026-05-03 20:38 | 21.03412 | -86.86858 | 19 ft | 1 kts | 302° |
| 2026-05-03 20:38 | 21.03439 | -86.86902 | 19 ft | 9 kts | 303° |
| 2026-05-03 20:39 | 21.03472 | -86.86952 | 19 ft | 7 kts | 305° |
| 2026-05-03 20:39 | 21.03497 | -86.86992 | 19 ft | 6 kts | 304° |
| 2026-05-03 20:39 | 21.03536 | -86.87054 | 19 ft | 19 kts | 303° |
| 2026-05-03 20:39 | 21.03548 | -86.87128 | 20 ft | 3 kts | 244° |
| 2026-05-03 20:40 | 21.03538 | -86.87145 | 20 ft | 5 kts | 245° |
| 2026-05-03 20:40 | 21.03568 | -86.87247 | 20 ft | 23 kts | 309° |
| 2026-05-03 20:40 | 21.03654 | -86.87382 | 21 ft | 21 kts | 302° |
| 2026-05-03 20:40 | 21.03724 | -86.87496 | 21 ft | 13 kts | 304° |
| 2026-05-03 20:41 | 21.03765 | -86.87561 | 21 ft | 10 kts | 304° |
| 2026-05-03 20:41 | 21.03800 | -86.87618 | 22 ft | 8 kts | 303° |
| 2026-05-03 20:41 | 21.03829 | -86.87664 | 22 ft | 7 kts | 303° |
| 2026-05-03 20:41 | 21.03855 | -86.87708 | 22 ft | 8 kts | 303° |
| 2026-05-03 20:42 | 21.03896 | -86.87774 | 22 ft | 15 kts | 303° |
| 2026-05-03 20:42 | 21.03977 | -86.87896 | 22 ft | 25 kts | 303° |
| 2026-05-03 20:42 | 21.04078 | -86.88063 | 22 ft | 26 kts | 304° |
| 2026-05-03 20:42 | 21.04158 | -86.88185 | 23 ft | 15 kts | 305° |
| 2026-05-03 20:43 | 21.04206 | -86.88260 | 23 ft | 10 kts | 304° |
| 2026-05-03 20:43 | 21.04250 | -86.88328 | 24 ft | 13 kts | 304° |
| 2026-05-03 20:43 | 21.04307 | -86.88422 | 24 ft | 17 kts | 302° |
| 2026-05-03 20:43 | 21.04397 | -86.88565 | 25 ft | 32 kts | 310° |
| 2026-05-03 20:44 | 21.04525 | -86.88773 | 25 ft | 32 kts | 304° |
| 2026-05-03 20:44 | 21.04615 | -86.88919 | 26 ft | 11 kts | 302° |
| 2026-05-03 20:44 | 21.04640 | -86.88969 | 27 ft | 5 kts | 285° |
| 2026-05-03 20:44 | 21.04636 | -86.89000 | 25 ft | 4 kts | 245° |
| 2026-05-03 20:45 | 21.04620 | -86.89017 | 25 ft | 3 kts | 220° |
| 2026-05-03 20:45 | 21.04612 | -86.89023 | 24 ft | 0 kts | 218° |
| 2026-05-03 20:45 | 21.04599 | -86.89034 | 24 ft | 7 kts | 217° |
| 2026-05-03 20:45 | 21.04532 | -86.89071 | 23 ft | 14 kts | 177° |
| 2026-05-03 20:46 | 21.04487 | -86.89024 | 23 ft | 0 kts | 122° |
| 2026-05-03 20:47 | 21.04480 | -86.89013 | 24 ft | 15 kts | 124° |
| 2026-05-03 20:47 | 21.04239 | -86.88630 | 27 ft | 106 kts | 124° |
| 2026-05-03 20:47 | 21.03688 | -86.87750 | 49 ft | 174 kts | 124° |
| 2026-05-03 20:48 | 21.02966 | -86.86593 | 705 ft | 191 kts | 125° |
| 2026-05-03 20:48 | 21.02198 | -86.85369 | 1163 ft | 210 kts | 124° |
| 2026-05-03 20:48 | 21.01337 | -86.84001 | 1554 ft | 233 kts | 124° |
| 2026-05-03 20:48 | 21.00455 | -86.82446 | 1904 ft | 255 kts | 119° |
| 2026-05-03 20:49 | 20.99616 | -86.80732 | 2518 ft | 263 kts | 117° |
| 2026-05-03 20:49 | 20.98780 | -86.78976 | 3238 ft | 266 kts | 117° |
| 2026-05-03 20:49 | 20.97938 | -86.77195 | 3959 ft | 270 kts | 117° |
| 2026-05-03 20:49 | 20.97084 | -86.75392 | 4689 ft | 273 kts | 117° |
| 2026-05-03 20:50 | 20.96291 | -86.73531 | 5355 ft | 278 kts | 106° |
| 2026-05-03 20:50 | 20.96082 | -86.71470 | 6015 ft | 282 kts | 84° |
| 2026-05-03 20:50 | 20.96433 | -86.69389 | 6644 ft | 287 kts | 78° |
| 2026-05-03 20:50 | 20.96838 | -86.67280 | 7267 ft | 291 kts | 77° |
| 2026-05-03 20:51 | 20.97245 | -86.65150 | 7951 ft | 293 kts | 77° |
| 2026-05-03 20:51 | 20.97653 | -86.63001 | 8612 ft | 296 kts | 77° |
| 2026-05-03 20:51 | 20.98062 | -86.60833 | 9271 ft | 299 kts | 77° |
| 2026-05-03 20:51 | 20.98610 | -86.58683 | 9925 ft | 301 kts | 68° |
| 2026-05-03 20:52 | 20.99355 | -86.56544 | 10226 ft | 317 kts | 68° |
| 2026-05-03 20:52 | 21.00153 | -86.54267 | 10347 ft | 337 kts | 68° |
| 2026-05-03 20:52 | 21.00991 | -86.51875 | 10689 ft | 347 kts | 68° |
| 2026-05-03 20:52 | 21.01842 | -86.49436 | 11193 ft | 352 kts | 68° |
| 2026-05-03 20:53 | 21.02699 | -86.46971 | 11716 ft | 355 kts | 68° |
| 2026-05-03 20:53 | 21.03561 | -86.44482 | 12242 ft | 358 kts | 69° |
| 2026-05-03 20:53 | 21.04431 | -86.41969 | 12773 ft | 362 kts | 69° |
| 2026-05-03 20:53 | 21.05310 | -86.39430 | 13289 ft | 365 kts | 69° |
| 2026-05-03 20:54 | 21.06195 | -86.36875 | 13810 ft | 368 kts | 69° |
| 2026-05-03 20:54 | 21.07995 | -86.31681 | 14692 ft | 375 kts | 69° |
| 2026-05-03 20:54 | 21.08904 | -86.29051 | 15133 ft | 378 kts | 69° |
| 2026-05-03 20:55 | 21.09821 | -86.26395 | 15575 ft | 382 kts | 69° |
| 2026-05-03 20:55 | 21.10747 | -86.23714 | 15977 ft | 387 kts | 68° |
| 2026-05-03 20:55 | 21.11687 | -86.20997 | 16389 ft | 391 kts | 68° |
| 2026-05-03 20:55 | 21.12637 | -86.18252 | 16814 ft | 394 kts | 69° |
| 2026-05-03 20:56 | 21.13592 | -86.15497 | 17250 ft | 397 kts | 68° |
| 2026-05-03 20:56 | 21.14558 | -86.12701 | 17668 ft | 401 kts | 68° |
| 2026-05-03 20:56 | 21.15527 | -86.09889 | 18087 ft | 404 kts | 68° |
| 2026-05-03 20:56 | 21.16503 | -86.07055 | 18463 ft | 407 kts | 68° |
| 2026-05-03 20:57 | 21.17485 | -86.04196 | 18832 ft | 410 kts | 69° |
| 2026-05-03 20:57 | 21.18471 | -86.01322 | 19208 ft | 413 kts | 69° |
| 2026-05-03 20:57 | 21.19406 | -85.98409 | 19587 ft | 416 kts | 74° |
| 2026-05-03 20:57 | 21.20023 | -85.95369 | 19963 ft | 419 kts | 78° |
| 2026-05-03 20:58 | 21.20601 | -85.92304 | 20338 ft | 421 kts | 78° |
| 2026-05-03 20:58 | 21.21185 | -85.89224 | 20711 ft | 423 kts | 77° |
| 2026-05-03 20:58 | 21.21777 | -85.86125 | 21064 ft | 426 kts | 77° |
| 2026-05-03 20:58 | 21.22373 | -85.83006 | 21420 ft | 428 kts | 77° |
| 2026-05-03 20:59 | 21.22971 | -85.79871 | 21770 ft | 431 kts | 77° |
| 2026-05-03 20:59 | 21.23572 | -85.76716 | 22124 ft | 433 kts | 77° |
| 2026-05-03 20:59 | 21.24173 | -85.73548 | 22473 ft | 435 kts | 77° |
| 2026-05-03 20:59 | 21.24773 | -85.70363 | 22815 ft | 438 kts | 78° |
| 2026-05-03 21:00 | 21.25405 | -85.67163 | 23136 ft | 439 kts | 74° |
| 2026-05-03 21:00 | 21.25680 | -85.66142 | 23242 ft | 440 kts | 70° |
| 2026-05-03 21:00 | 21.27369 | -85.62154 | 23653 ft | 440 kts | 56° |
| 2026-05-03 21:00 | 21.29166 | -85.59508 | 23923 ft | 439 kts | 46° |
| 2026-05-03 21:01 | 21.31334 | -85.57206 | 24196 ft | 439 kts | 39° |
| 2026-05-03 21:01 | 21.33611 | -85.54998 | 24472 ft | 442 kts | 39° |
| 2026-05-03 21:01 | 21.35890 | -85.52777 | 24764 ft | 444 kts | 39° |
| 2026-05-03 21:01 | 21.38180 | -85.50536 | 25019 ft | 447 kts | 40° |
| 2026-05-03 21:02 | 21.40484 | -85.48281 | 25286 ft | 449 kts | 40° |
| 2026-05-03 21:02 | 21.42802 | -85.46011 | 25560 ft | 452 kts | 40° |
| 2026-05-03 21:02 | 21.45129 | -85.43730 | 25827 ft | 454 kts | 40° |
| 2026-05-03 21:02 | 21.47471 | -85.41438 | 26095 ft | 457 kts | 40° |
| 2026-05-03 21:03 | 21.49826 | -85.39137 | 26360 ft | 459 kts | 40° |
| 2026-05-03 21:03 | 21.52194 | -85.36822 | 26624 ft | 462 kts | 40° |
| 2026-05-03 21:03 | 21.54578 | -85.34493 | 26886 ft | 464 kts | 40° |
| 2026-05-03 21:03 | 21.56972 | -85.32154 | 27145 ft | 466 kts | 40° |
| 2026-05-03 21:04 | 21.59377 | -85.29802 | 27402 ft | 469 kts | 40° |
| 2026-05-03 21:04 | 21.61792 | -85.27436 | 27657 ft | 471 kts | 40° |
| 2026-05-03 21:04 | 21.64223 | -85.25051 | 27913 ft | 474 kts | 40° |
| 2026-05-03 21:04 | 21.66657 | -85.22660 | 28168 ft | 476 kts | 40° |
| 2026-05-03 21:05 | 21.69110 | -85.20253 | 28423 ft | 478 kts | 40° |
| 2026-05-03 21:05 | 21.71541 | -85.17867 | 28669 ft | 480 kts | 40° |
| 2026-05-03 21:05 | 21.74042 | -85.15408 | 28965 ft | 482 kts | 40° |
| 2026-05-03 21:05 | 21.76484 | -85.13003 | 29252 ft | 483 kts | 40° |
| 2026-05-03 21:06 | 21.78971 | -85.10557 | 29509 ft | 485 kts | 40° |
| 2026-05-03 21:06 | 21.81463 | -85.08109 | 29759 ft | 487 kts | 40° |
| 2026-05-03 21:06 | 21.83970 | -85.05645 | 30001 ft | 489 kts | 40° |
| 2026-05-03 21:06 | 21.86485 | -85.03175 | 30218 ft | 491 kts | 40° |
| 2026-05-03 21:07 | 21.89009 | -85.00691 | 30421 ft | 492 kts | 40° |
| 2026-05-03 21:07 | 21.91538 | -84.98197 | 30627 ft | 493 kts | 40° |
| 2026-05-03 21:07 | 21.94067 | -84.95699 | 30818 ft | 495 kts | 40° |
| 2026-05-03 21:07 | 21.96609 | -84.93187 | 31000 ft | 496 kts | 40° |
| 2026-05-03 21:08 | 21.99154 | -84.90672 | 31177 ft | 497 kts | 40° |
| 2026-05-03 21:08 | 22.01706 | -84.88152 | 31352 ft | 498 kts | 40° |
| 2026-05-03 21:08 | 22.04262 | -84.85626 | 31584 ft | 498 kts | 40° |
| 2026-05-03 21:08 | 22.06816 | -84.83105 | 31786 ft | 499 kts | 38° |
| 2026-05-03 21:09 | 22.09385 | -84.80569 | 31932 ft | 502 kts | 38° |
| 2026-05-03 21:09 | 22.11963 | -84.78021 | 32111 ft | 503 kts | 38° |
| 2026-05-03 21:09 | 22.14537 | -84.75472 | 32330 ft | 503 kts | 38° |
| 2026-05-03 21:09 | 22.17111 | -84.72921 | 32557 ft | 503 kts | 38° |
| 2026-05-03 21:10 | 22.19687 | -84.70366 | 32786 ft | 503 kts | 38° |
| 2026-05-03 21:10 | 22.22261 | -84.67810 | 33016 ft | 503 kts | 38° |
| 2026-05-03 21:10 | 22.24835 | -84.65253 | 33267 ft | 502 kts | 39° |
| 2026-05-03 21:10 | 22.27397 | -84.62705 | 33560 ft | 500 kts | 39° |
| 2026-05-03 21:11 | 22.29950 | -84.60162 | 33810 ft | 500 kts | 38° |
| 2026-05-03 21:11 | 22.32508 | -84.57617 | 34051 ft | 499 kts | 38° |
| 2026-05-03 21:11 | 22.35055 | -84.55088 | 34259 ft | 499 kts | 38° |
| 2026-05-03 21:11 | 22.37617 | -84.52548 | 34481 ft | 499 kts | 38° |
| 2026-05-03 21:12 | 22.40177 | -84.50006 | 34650 ft | 500 kts | 38° |
| 2026-05-03 21:12 | 22.42735 | -84.47461 | 34825 ft | 500 kts | 38° |
| 2026-05-03 21:12 | 22.45297 | -84.44908 | 35042 ft | 500 kts | 38° |
| 2026-05-03 21:12 | 22.47852 | -84.42359 | 35253 ft | 500 kts | 38° |
| 2026-05-03 21:13 | 22.50407 | -84.39811 | 35467 ft | 500 kts | 38° |
| 2026-05-03 21:13 | 22.52966 | -84.37262 | 35691 ft | 499 kts | 38° |
| 2026-05-03 21:13 | 22.55516 | -84.34718 | 35902 ft | 499 kts | 38° |
| 2026-05-03 21:13 | 22.58063 | -84.32173 | 36109 ft | 499 kts | 38° |
| 2026-05-03 21:14 | 22.60612 | -84.29625 | 36309 ft | 498 kts | 38° |
| 2026-05-03 21:14 | 22.63158 | -84.27082 | 36519 ft | 497 kts | 38° |
| 2026-05-03 21:14 | 22.65628 | -84.24464 | 36733 ft | 499 kts | 45° |
| 2026-05-03 21:14 | 22.67870 | -84.21581 | 36953 ft | 500 kts | 46° |
| 2026-05-03 21:15 | 22.72304 | -84.15825 | 37016 ft | 495 kts | 46° |
| 2026-05-03 21:15 | 22.76730 | -84.10122 | 37016 ft | 494 kts | 46° |
| 2026-05-03 21:16 | 22.81205 | -84.04488 | 37019 ft | 493 kts | 45° |
| 2026-05-03 21:16 | 22.85687 | -83.98867 | 37019 ft | 493 kts | 45° |
| 2026-05-03 21:17 | 22.89406 | -83.94169 | 37018 ft | 493 kts | 46° |
| 2026-05-03 21:17 | 22.94615 | -83.87543 | 37033 ft | 493 kts | 46° |
| 2026-05-03 21:18 | 22.99067 | -83.81877 | 37065 ft | 493 kts | 46° |
| 2026-05-03 21:18 | 23.03526 | -83.76214 | 37045 ft | 494 kts | 46° |
| 2026-05-03 21:19 | 23.07959 | -83.70574 | 37039 ft | 495 kts | 46° |
| 2026-05-03 21:19 | 23.12414 | -83.64897 | 37033 ft | 495 kts | 46° |
| 2026-05-03 21:20 | 23.16886 | -83.59196 | 37033 ft | 495 kts | 46° |
| 2026-05-03 21:20 | 23.21352 | -83.53494 | 37034 ft | 495 kts | 46° |
| 2026-05-03 21:21 | 23.25804 | -83.47789 | 37039 ft | 495 kts | 46° |
| 2026-05-03 21:21 | 23.30254 | -83.42085 | 37055 ft | 494 kts | 46° |
| 2026-05-03 21:22 | 23.34717 | -83.36376 | 37032 ft | 496 kts | 46° |
| 2026-05-03 21:22 | 23.39180 | -83.30649 | 37023 ft | 496 kts | 46° |
| 2026-05-03 21:23 | 23.43643 | -83.24906 | 37024 ft | 497 kts | 46° |
| 2026-05-03 21:23 | 23.48114 | -83.19155 | 37025 ft | 497 kts | 46° |
| 2026-05-03 21:24 | 23.52584 | -83.13400 | 37029 ft | 497 kts | 46° |
| 2026-05-03 21:24 | 23.57044 | -83.07643 | 37038 ft | 497 kts | 46° |
| 2026-05-03 21:25 | 23.61503 | -83.01892 | 37033 ft | 498 kts | 47° |
| 2026-05-03 21:25 | 23.65977 | -82.96124 | 37022 ft | 499 kts | 47° |
| 2026-05-03 21:26 | 23.70452 | -82.90334 | 37022 ft | 500 kts | 47° |
| 2026-05-03 21:26 | 23.74918 | -82.84532 | 37022 ft | 500 kts | 47° |
| 2026-05-03 21:27 | 23.79394 | -82.78717 | 37027 ft | 501 kts | 47° |
| 2026-05-03 21:27 | 23.83876 | -82.72898 | 37029 ft | 500 kts | 47° |
| 2026-05-03 21:28 | 23.88348 | -82.67082 | 37033 ft | 500 kts | 47° |
| 2026-05-03 21:28 | 23.92827 | -82.61248 | 37035 ft | 501 kts | 47° |
| 2026-05-03 21:29 | 23.97309 | -82.55397 | 36995 ft | 503 kts | 47° |
| 2026-05-03 21:29 | 24.01864 | -82.49552 | 36979 ft | 506 kts | 45° |
| 2026-05-03 21:30 | 24.06699 | -82.43931 | 36985 ft | 508 kts | 42° |
| 2026-05-03 21:30 | 24.11657 | -82.38401 | 36983 ft | 510 kts | 42° |
| 2026-05-03 21:31 | 24.16392 | -82.32602 | 37003 ft | 514 kts | 53° |
| 2026-05-03 21:31 | 24.18210 | -82.29226 | 37018 ft | 516 kts | 64° |
| 2026-05-03 21:31 | 24.19736 | -82.25670 | 37042 ft | 517 kts | 64° |
| 2026-05-03 21:32 | 24.22828 | -82.18544 | 37012 ft | 521 kts | 63° |
| 2026-05-03 21:32 | 24.26002 | -82.11341 | 37015 ft | 528 kts | 63° |
| 2026-05-03 21:33 | 24.29184 | -82.04078 | 37013 ft | 530 kts | 64° |
| 2026-05-03 21:33 | 24.32354 | -81.96763 | 37015 ft | 531 kts | 64° |
| 2026-05-03 21:34 | 24.35504 | -81.89497 | 36653 ft | 531 kts | 64° |
| 2026-05-03 21:34 | 24.37101 | -81.85822 | 35635 ft | 524 kts | 64° |
| 2026-05-03 21:34 | 24.38635 | -81.82281 | 34421 ft | 521 kts | 64° |
| 2026-05-03 21:35 | 24.40181 | -81.78701 | 33515 ft | 513 kts | 64° |
| 2026-05-03 21:35 | 24.41679 | -81.75235 | 33144 ft | 499 kts | 64° |
| 2026-05-03 21:35 | 24.43169 | -81.71795 | 32562 ft | 497 kts | 63° |
| 2026-05-03 21:35 | 24.44667 | -81.68388 | 32016 ft | 494 kts | 60° |
| 2026-05-03 21:36 | 24.46480 | -81.65204 | 31548 ft | 487 kts | 50° |
| 2026-05-03 21:36 | 24.48600 | -81.62336 | 31092 ft | 482 kts | 47° |
| 2026-05-03 21:36 | 24.50737 | -81.59518 | 30628 ft | 478 kts | 47° |
| 2026-05-03 21:36 | 24.52848 | -81.56720 | 30192 ft | 474 kts | 47° |
| 2026-05-03 21:37 | 24.54941 | -81.53935 | 29698 ft | 471 kts | 47° |
| 2026-05-03 21:37 | 24.57012 | -81.51174 | 29278 ft | 466 kts | 47° |
| 2026-05-03 21:37 | 24.59060 | -81.48443 | 28845 ft | 461 kts | 47° |
| 2026-05-03 21:37 | 24.61075 | -81.45755 | 28440 ft | 455 kts | 47° |
| 2026-05-03 21:38 | 24.63080 | -81.43085 | 28035 ft | 450 kts | 47° |
| 2026-05-03 21:38 | 24.65061 | -81.40451 | 27637 ft | 445 kts | 47° |
| 2026-05-03 21:38 | 24.67021 | -81.37845 | 27245 ft | 440 kts | 47° |
| 2026-05-03 21:38 | 24.68960 | -81.35265 | 26854 ft | 436 kts | 47° |
| 2026-05-03 21:39 | 24.70880 | -81.32707 | 26463 ft | 432 kts | 47° |
| 2026-05-03 21:39 | 24.72780 | -81.30171 | 26066 ft | 427 kts | 47° |
| 2026-05-03 21:39 | 24.74663 | -81.27655 | 25673 ft | 424 kts | 47° |
| 2026-05-03 21:39 | 24.76530 | -81.25161 | 25282 ft | 421 kts | 47° |
| 2026-05-03 21:40 | 24.78382 | -81.22685 | 24877 ft | 417 kts | 47° |
| 2026-05-03 21:40 | 24.80217 | -81.20228 | 24465 ft | 415 kts | 48° |
| 2026-05-03 21:40 | 24.82042 | -81.17786 | 24062 ft | 412 kts | 48° |
| 2026-05-03 21:40 | 24.83863 | -81.15358 | 23643 ft | 409 kts | 47° |
| 2026-05-03 21:41 | 24.85837 | -81.13151 | 23169 ft | 402 kts | 37° |
| 2026-05-03 21:41 | 24.88056 | -81.11325 | 22734 ft | 395 kts | 27° |
| 2026-05-03 21:41 | 24.90465 | -81.09900 | 22241 ft | 391 kts | 19° |
| 2026-05-03 21:41 | 24.92944 | -81.08694 | 21750 ft | 389 kts | 19° |
| 2026-05-03 21:42 | 24.95417 | -81.07484 | 21273 ft | 387 kts | 19° |
| 2026-05-03 21:42 | 24.97873 | -81.06275 | 20792 ft | 385 kts | 19° |
| 2026-05-03 21:42 | 25.00310 | -81.05070 | 20316 ft | 383 kts | 20° |
| 2026-05-03 21:42 | 25.02734 | -81.03869 | 19862 ft | 381 kts | 20° |
| 2026-05-03 21:43 | 25.05140 | -81.02677 | 19415 ft | 378 kts | 20° |
| 2026-05-03 21:43 | 25.07534 | -81.01492 | 18978 ft | 376 kts | 19° |
| 2026-05-03 21:43 | 25.09913 | -81.00316 | 18572 ft | 372 kts | 19° |
| 2026-05-03 21:43 | 25.12217 | -80.99174 | 17951 ft | 365 kts | 19° |
| 2026-05-03 21:44 | 25.14552 | -80.98017 | 17462 ft | 363 kts | 19° |
| 2026-05-03 21:44 | 25.16841 | -80.96884 | 17022 ft | 359 kts | 19° |
| 2026-05-03 21:44 | 25.19114 | -80.95760 | 16578 ft | 356 kts | 19° |
| 2026-05-03 21:44 | 25.21363 | -80.94649 | 16143 ft | 353 kts | 20° |
| 2026-05-03 21:45 | 25.23598 | -80.93544 | 15708 ft | 350 kts | 20° |
| 2026-05-03 21:45 | 25.25809 | -80.92448 | 15282 ft | 347 kts | 20° |
| 2026-05-03 21:45 | 25.27980 | -80.91371 | 14859 ft | 345 kts | 20° |
| 2026-05-03 21:45 | 25.30164 | -80.90287 | 14420 ft | 343 kts | 20° |
| 2026-05-03 21:46 | 25.32330 | -80.89211 | 14011 ft | 340 kts | 20° |
| 2026-05-03 21:46 | 25.33786 | -80.88488 | 13716 ft | 339 kts | 20° |
| 2026-05-03 21:46 | 25.36621 | -80.87081 | 13150 ft | 335 kts | 20° |
| 2026-05-03 21:46 | 25.38737 | -80.86029 | 12727 ft | 332 kts | 20° |
| 2026-05-03 21:47 | 25.40160 | -80.85335 | 12454 ft | 330 kts | 19° |
| 2026-05-03 21:47 | 25.42254 | -80.84351 | 12112 ft | 324 kts | 19° |
| 2026-05-03 21:47 | 25.44339 | -80.83396 | 11654 ft | 323 kts | 18° |
| 2026-05-03 21:47 | 25.46417 | -80.82507 | 11296 ft | 319 kts | 16° |
| 2026-05-03 21:48 | 25.48507 | -80.81707 | 10861 ft | 317 kts | 14° |
| 2026-05-03 21:48 | 25.50591 | -80.80949 | 10491 ft | 314 kts | 14° |
| 2026-05-03 21:48 | 25.52671 | -80.80200 | 10083 ft | 313 kts | 14° |
| 2026-05-03 21:48 | 25.54729 | -80.79450 | 9719 ft | 309 kts | 14° |
| 2026-05-03 21:49 | 25.56766 | -80.78698 | 9280 ft | 308 kts | 15° |
| 2026-05-03 21:49 | 25.58792 | -80.77941 | 8895 ft | 305 kts | 15° |
| 2026-05-03 21:49 | 25.60794 | -80.77188 | 8526 ft | 302 kts | 15° |
| 2026-05-03 21:49 | 25.62746 | -80.76442 | 8160 ft | 300 kts | 18° |
| 2026-05-03 21:50 | 25.64575 | -80.75331 | 7789 ft | 301 kts | 35° |
| 2026-05-03 21:50 | 25.66055 | -80.73696 | 7430 ft | 304 kts | 51° |
| 2026-05-03 21:50 | 25.67329 | -80.71817 | 7132 ft | 302 kts | 51° |
| 2026-05-03 21:50 | 25.68575 | -80.69977 | 6705 ft | 295 kts | 51° |
| 2026-05-03 21:51 | 25.69814 | -80.68171 | 6299 ft | 295 kts | 51° |
| 2026-05-03 21:51 | 25.71059 | -80.66365 | 5918 ft | 294 kts | 51° |
| 2026-05-03 21:51 | 25.72305 | -80.64556 | 5533 ft | 290 kts | 52° |
| 2026-05-03 21:51 | 25.73491 | -80.62824 | 5196 ft | 276 kts | 51° |
| 2026-05-03 21:52 | 25.74644 | -80.61140 | 4846 ft | 273 kts | 51° |
| 2026-05-03 21:52 | 25.75787 | -80.59471 | 4506 ft | 268 kts | 51° |
| 2026-05-03 21:52 | 25.76868 | -80.57808 | 4173 ft | 265 kts | 60° |
| 2026-05-03 21:52 | 25.77509 | -80.55937 | 4000 ft | 251 kts | 83° |
| 2026-05-03 21:53 | 25.77678 | -80.54072 | 3900 ft | 238 kts | 89° |
| 2026-05-03 21:53 | 25.77736 | -80.52241 | 3633 ft | 237 kts | 88° |
| 2026-05-03 21:53 | 25.77803 | -80.50426 | 3348 ft | 233 kts | 88° |
| 2026-05-03 21:53 | 25.77878 | -80.48664 | 3052 ft | 225 kts | 87° |
| 2026-05-03 21:54 | 25.77950 | -80.46992 | 2777 ft | 206 kts | 88° |
| 2026-05-03 21:54 | 25.78016 | -80.45481 | 2505 ft | 185 kts | 88° |
| 2026-05-03 21:54 | 25.78074 | -80.44118 | 2273 ft | 169 kts | 87° |
| 2026-05-03 21:54 | 25.78128 | -80.42874 | 2072 ft | 158 kts | 87° |
| 2026-05-03 21:55 | 25.78179 | -80.41672 | 1870 ft | 154 kts | 87° |
| 2026-05-03 21:55 | 25.78229 | -80.40497 | 1675 ft | 152 kts | 87° |
| 2026-05-03 21:55 | 25.78277 | -80.39353 | 1481 ft | 150 kts | 87° |
| 2026-05-03 21:55 | 25.78326 | -80.38199 | 1286 ft | 150 kts | 87° |
| 2026-05-03 21:56 | 25.78375 | -80.37045 | 1093 ft | 149 kts | 87° |
| 2026-05-03 21:56 | 25.78423 | -80.35897 | 905 ft | 149 kts | 87° |
| 2026-05-03 21:56 | 25.78471 | -80.34759 | 717 ft | 147 kts | 87° |
| 2026-05-03 21:56 | 25.78518 | -80.33648 | 522 ft | 146 kts | 87° |
| 2026-05-03 21:57 | 25.78568 | -80.32518 | 306 ft | 143 kts | 85° |
| 2026-05-03 21:57 | 25.78612 | -80.31412 | 137 ft | 143 kts | 86° |
| 2026-05-03 21:57 | 25.78657 | -80.30359 | 15 ft | 127 kts | 87° |
| 2026-05-03 21:57 | 25.78687 | -80.29608 | 15 ft | 66 kts | 87° |
| 2026-05-03 21:58 | 25.78713 | -80.29322 | 15 ft | 21 kts | 75° |
| 2026-05-03 21:58 | 25.78763 | -80.29205 | 16 ft | 13 kts | 50° |
| 2026-05-03 21:58 | 25.78806 | -80.29147 | 16 ft | 8 kts | 56° |
| 2026-05-03 21:58 | 25.78822 | -80.29074 | 15 ft | 13 kts | 83° |
| 2026-05-03 21:59 | 25.78839 | -80.28960 | 15 ft | 17 kts | 77° |
| 2026-05-03 21:59 | 25.78868 | -80.28822 | 15 ft | 20 kts | 84° |
| 2026-05-03 21:59 | 25.78872 | -80.28663 | 15 ft | 21 kts | 89° |
| 2026-05-03 21:59 | 25.78877 | -80.28501 | 15 ft | 21 kts | 88° |
| 2026-05-03 22:00 | 25.78885 | -80.28339 | 16 ft | 21 kts | 86° |
| 2026-05-03 22:00 | 25.78893 | -80.28178 | 16 ft | 21 kts | 85° |
| 2026-05-03 22:00 | 25.78901 | -80.28100 | 18 ft | 7 kts | 84° |
| 2026-05-03 22:00 | 25.78919 | -80.28016 | 16 ft | 16 kts | 63° |
| 2026-05-03 22:01 | 25.78939 | -80.27859 | 16 ft | 26 kts | 89° |
| 2026-05-03 22:01 | 25.78945 | -80.27678 | 15 ft | 16 kts | 83° |
| 2026-05-03 22:01 | 25.78950 | -80.27634 | 15 ft | 4 kts | 83° |
| 2026-05-03 22:01 | 25.78957 | -80.27585 | 15 ft | 9 kts | 78° |
| 2026-05-03 22:02 | 25.78975 | -80.27538 | 17 ft | 4 kts | 56° |
| 2026-05-03 22:02 | 25.79000 | -80.27524 | 15 ft | 4 kts | 5° |
| 2026-05-03 22:02 | 25.79031 | -80.27527 | 15 ft | 5 kts | 355° |
| 2026-05-03 22:02 | 25.79071 | -80.27531 | 15 ft | 6 kts | 355° |
| 2026-05-03 22:03 | 25.79108 | -80.27535 | 15 ft | 4 kts | 352° |
| 2026-05-03 22:03 | 25.79129 | -80.27539 | 15 ft | 2 kts | 352° |
| 2026-05-03 22:03 | 25.79139 | -80.27540 | 15 ft | 1 kts | 352° |
| 2026-05-03 22:03 | 25.79168 | -80.27546 | 15 ft | 6 kts | 346° |
| 2026-05-03 22:04 | 25.79192 | -80.27570 | 15 ft | 3 kts | 297° |
| 2026-05-03 22:04 | 25.79195 | -80.27588 | 15 ft | 2 kts | 279° |
| 2026-05-03 22:04 | 25.79195 | -80.27599 | 15 ft | 1 kts | 269° |
| 2026-05-03 22:04 | 25.79195 | -80.27602 | 15 ft | 1 kts | 269° |
| 2026-05-03 22:05 | 25.79195 | -80.27610 | 15 ft | 0 kts | 268° |
| 2026-05-03 22:05 | 25.79195 | -80.27613 | 15 ft | 1 kts | 268° |
| 2026-05-03 22:05 | 25.79194 | -80.27615 | 15 ft | 0 kts | 268° |
| 2026-05-03 22:05 | 25.79194 | -80.27616 | 15 ft | 0 kts | 267° |